Time;durP1;ratioP1;P1;durP2;ratioP2;P2;SDS_P1;SDS_P2;PMS_P1;PMS_P2;Temp;Humidity;BMP_temperature;BMP_pressure;BME280_temperature;BME280_humidity;BME280_pressure;Samples;Min_cycle;Max_cycle;Signal;HPM_P1;HPM_P2
2022/12/07 00:01:29;;;;;;;14.28;8.95;;;;;;;2.39;80.76;96647.84;1602937;89;28271;-74
2022/12/07 00:04:03;;;;;;;13.68;9.33;;;;;;;2.36;80.77;96640.20;1602894;89;25932;-73
2022/12/07 00:06:27;;;;;;;11.97;5.93;;;;;;;2.32;80.74;96640.23;1599881;89;25803;-71
2022/12/07 00:08:54;;;;;;;14.68;8.65;;;;;;;2.31;80.74;96650.55;1603127;89;25833;-72
2022/12/07 00:11:22;;;;;;;12.05;8.08;;;;;;;2.28;80.71;96640.28;1604914;87;25911;-72
2022/12/07 00:13:55;;;;;;;12.25;8.70;;;;;;;2.24;80.73;96644.30;1625733;87;28298;-73
2022/12/07 00:16:25;;;;;;;17.35;9.88;;;;;;;2.22;80.69;96648.13;1625760;87;25690;-72
2022/12/07 00:18:51;;;;;;;16.82;9.75;;;;;;;2.16;80.71;96641.70;1625839;86;25848;-71
2022/12/07 00:21:31;;;;;;;19.48;10.95;;;;;;;2.15;80.73;96645.37;1625936;87;25785;-72
2022/12/07 00:23:59;;;;;;;20.32;11.73;;;;;;;2.11;80.72;96645.39;1630694;87;25249;-70
2022/12/07 00:26:33;;;;;;;19.75;12.13;;;;;;;2.07;80.72;96637.42;1625840;87;27405;-71
2022/12/07 00:29:04;;;;;;;21.12;12.93;;;;;;;2.02;80.74;96635.30;1470996;95;26558;-71
2022/12/07 00:31:35;;;;;;;20.85;12.65;;;;;;;1.98;80.82;96631.83;1502894;95;25929;-71
2022/12/07 00:34:02;;;;;;;16.32;11.12;;;;;;;1.93;80.84;96634.21;1521215;93;25798;-71
2022/12/07 00:36:29;;;;;;;17.27;10.25;;;;;;;1.89;80.96;96639.55;1547359;91;25838;-71
2022/12/07 00:38:58;;;;;;;19.90;10.53;;;;;;;1.83;81.00;96630.92;1569704;90;28090;-73
2022/12/07 00:41:26;;;;;;;21.50;11.33;;;;;;;1.81;81.14;96633.25;1569727;91;25716;-71
2022/12/07 00:43:54;;;;;;;22.73;12.05;;;;;;;1.77;81.17;96634.63;1569720;90;25795;-74
2022/12/07 00:46:22;;;;;;;21.30;11.35;;;;;;;1.77;81.29;96630.64;1549716;91;25845;-72
2022/12/07 00:48:50;;;;;;;20.05;11.35;;;;;;;1.78;81.37;96630.97;1569845;91;25950;-74
2022/12/07 00:51:20;;;;;;;15.80;10.50;;;;;;;1.75;81.31;96629.98;1640892;86;27391;-71
2022/12/07 00:53:47;;;;;;;17.60;10.00;;;;;;;1.76;81.43;96630.81;1660493;86;25860;-74
2022/12/07 00:56:21;;;;;;;18.45;11.10;;;;;;;1.74;81.38;96626.16;1658897;86;25400;-72
2022/12/07 00:59:00;;;;;;;16.15;9.33;;;;;;;1.69;81.34;96625.88;1659013;86;25849;-72
2022/12/07 01:01:31;;;;;;;18.45;9.05;;;;;;;1.69;81.38;96634.66;1568375;91;25915;-71
2022/12/07 01:04:01;;;;;;;15.03;8.58;;;;;;;1.71;81.43;96628.66;1568392;91;27580;-71
2022/12/07 01:06:28;;;;;;;16.35;9.88;;;;;;;1.73;81.43;96623.17;1568080;91;25502;-72
2022/12/07 01:08:55;;;;;;;15.00;9.48;;;;;;;1.73;81.37;96624.00;1568145;91;25607;-72
2022/12/07 01:11:25;;;;;;;15.75;8.80;;;;;;;1.73;81.36;96618.68;1568230;91;25691;-71
2022/12/07 01:13:54;;;;;;;16.73;9.88;;;;;;;1.75;81.38;96623.33;1568242;91;25819;-72
2022/12/07 01:16:24;;;;;;;18.17;10.20;;;;;;;1.76;81.38;96623.66;1568254;91;28091;-71
2022/12/07 01:18:53;;;;;;;20.32;11.48;;;;;;;1.76;81.37;96619.66;1568215;91;25774;-71
2022/12/07 01:21:27;;;;;;;13.98;8.00;;;;;;;1.77;81.40;96619.99;1568237;91;25901;-72
2022/12/07 01:23:54;;;;;;;15.83;8.45;;;;;;;1.76;81.36;96624.98;1568286;91;25859;-70
2022/12/07 01:26:23;;;;;;;13.18;7.22;;;;;;;1.75;81.29;96620.66;1665387;82;25784;-72
2022/12/07 01:28:51;;;;;;;12.47;8.10;;;;;;;1.76;81.33;96615.67;1697674;83;27431;-71
2022/12/07 01:31:22;;;;;;;10.03;7.03;;;;;;;1.76;81.38;96617.00;1697629;84;25795;-73
2022/12/07 01:33:53;;;;;;;8.83;5.62;;;;;;;1.74;81.46;96616.34;1704152;82;25732;-72
2022/12/07 01:36:24;;;;;;;11.33;6.83;;;;;;;1.72;81.37;96610.36;1732593;82;25894;-74
2022/12/07 01:38:56;;;;;;;8.58;5.08;;;;;;;1.68;81.43;96612.24;1702515;82;25915;-72
2022/12/07 01:41:26;;;;;;;9.98;5.95;;;;;;;1.63;81.46;96611.92;1697875;83;27376;-72
2022/12/07 01:44:18;;;;;;;8.80;5.53;;;;;;;1.67;81.57;96603.93;1702111;82;25577;-72
2022/12/07 01:46:57;;;;;;;6.53;4.25;;;;;;;1.66;81.61;96603.10;1717944;82;25982;-71
2022/12/07 01:49:35;;;;;;;5.60;3.47;;;;;;;1.67;81.61;96600.77;1722285;82;25750;-74
2022/12/07 01:52:26;;;;;;;3.92;3.05;;;;;;;1.71;81.57;96599.39;1713170;82;26861;-72
2022/12/07 01:54:58;;;;;;;5.27;3.70;;;;;;;1.75;81.56;96603.38;1667092;84;28194;-72
2022/12/07 01:57:25;;;;;;;5.80;3.35;;;;;;;1.74;81.57;96607.53;1638832;87;25946;-72
2022/12/07 01:59:54;;;;;;;3.65;2.92;;;;;;;1.73;81.48;96600.05;1614691;87;25935;-72
2022/12/07 02:02:39;;;;;;;4.37;3.67;;;;;;;1.77;81.46;96606.69;1610652;87;25707;-72
2022/12/07 02:05:07;;;;;;;5.95;3.80;;;;;;;1.78;81.42;96609.68;1666065;83;25825;-72
2022/12/07 02:07:37;;;;;;;10.82;5.17;;;;;;;1.78;81.45;96603.03;1717253;83;28340;-72
2022/12/07 02:10:21;;;;;;;7.42;5.15;;;;;;;1.77;81.39;96609.34;1718598;83;25633;-74
2022/12/07 02:12:58;;;;;;;7.00;4.97;;;;;;;1.77;81.45;96608.52;1718737;83;25722;-71
2022/12/07 02:15:48;;;;;;;7.10;4.78;;;;;;;1.77;81.52;96612.52;1716431;83;25766;-72
2022/12/07 02:18:20;;;;;;;7.72;4.15;;;;;;;1.75;81.55;96606.03;1718894;83;26285;-71
2022/12/07 02:21:14;;;;;;;5.40;4.20;;;;;;;1.76;81.62;96606.36;1581786;89;28349;-74
2022/12/07 02:24:06;;;;;;;6.62;4.65;;;;;;;1.78;81.64;96597.70;1589357;89;26244;-73
2022/12/07 02:26:56;;;;;;;7.37;5.25;;;;;;;1.81;81.64;96599.99;1594280;89;25831;-72
2022/12/07 02:29:33;;;;;;;8.88;6.12;;;;;;;1.80;81.58;96598.36;1576285;89;25865;-72
2022/12/07 02:32:16;;;;;;;6.33;5.40;;;;;;;1.78;81.65;96596.38;1608428;88;25934;-72
2022/12/07 02:34:54;;;;;;;7.58;5.58;;;;;;;1.80;81.71;96597.03;1619973;86;28210;-71
2022/12/07 02:38:04;;;;;;;8.78;5.87;;;;;;;1.82;81.75;96599.48;1620599;88;25960;-72
2022/12/07 02:40:40;;;;;;;10.45;7.12;;;;;;;1.84;81.80;96601.98;1613372;88;25864;-72
2022/12/07 02:43:30;;;;;;;10.98;6.92;;;;;;;1.85;81.81;96602.30;1621609;88;25760;-72
2022/12/07 02:46:04;;;;;;;13.98;8.50;;;;;;;1.84;81.87;96596.16;1621984;88;25760;-72
2022/12/07 02:48:34;;;;;;;14.30;8.75;;;;;;;1.83;81.92;96595.83;1621953;87;27404;-72
2022/12/07 02:51:00;;;;;;;16.20;9.38;;;;;;;1.81;81.92;96590.67;1621732;88;25916;-72
2022/12/07 02:53:34;;;;;;;11.70;7.22;;;;;;;1.77;81.95;96594.72;1636741;83;26054;-71
2022/12/07 02:56:09;;;;;;;7.75;5.22;;;;;;;1.78;82.00;96592.38;1671053;83;25676;-71
2022/12/07 02:58:41;;;;;;;4.03;3.00;;;;;;;1.80;81.96;96594.87;1716388;80;25772;-72
2022/12/07 03:01:20;;;;;;;;;;;;;;;1.84;81.77;96590.00;1772992;80;27412;-72
2022/12/07 03:03:52;;;;;;;3.52;3.00;;;;;;;1.92;81.61;96591.30;1768944;80;25874;-74
2022/12/07 03:06:31;;;;;;;4.08;2.98;;;;;;;1.95;81.54;96596.24;1768185;79;25662;-72
2022/12/07 03:09:15;;;;;;;7.20;5.00;;;;;;;1.99;81.50;96586.91;1756462;80;26457;-73
2022/12/07 03:11:52;;;;;;;17.57;7.83;;;;;;;2.03;81.42;96590.38;1778402;80;25572;-72
2022/12/07 03:14:27;;;;;;;30.02;12.43;;;;;;;2.08;81.31;96592.48;1713362;81;29814;-73
2022/12/07 03:17:08;;;;;;;13.50;6.58;;;;;;;2.12;81.23;96589.80;1701161;81;25514;-72
2022/12/07 03:19:37;;;;;;;7.65;4.42;;;;;;;2.12;81.40;96587.14;1698438;82;25759;-71
2022/12/07 03:22:11;;;;;;;6.70;4.33;;;;;;;2.12;81.48;96587.14;1701341;82;25887;-72
2022/12/07 03:24:46;;;;;;;5.15;3.92;;;;;;;2.12;81.48;96589.80;1720288;82;25521;-72
2022/12/07 03:27:23;;;;;;;5.30;3.85;;;;;;;2.09;81.42;96583.50;1719638;81;27427;-71
2022/12/07 03:30:07;;;;;;;4.72;3.85;;;;;;;2.06;81.47;96583.34;1625748;87;25783;-74
2022/12/07 03:32:38;;;;;;;4.75;4.17;;;;;;;2.07;81.47;96577.52;1616350;87;25977;-72
2022/12/07 03:35:29;;;;;;;4.53;4.03;;;;;;;2.07;81.53;96572.19;1589735;89;25880;-72
2022/12/07 03:38:15;;;;;;;7.45;4.72;;;;;;;2.07;81.54;96581.52;1539549;93;25776;-72
2022/12/07 03:41:08;;;;;;;7.45;4.53;;;;;;;2.09;81.57;96577.67;1514880;94;27410;-73
2022/12/07 03:43:37;;;;;;;6.97;4.65;;;;;;;2.08;81.66;96576.52;1529587;92;25875;-71
2022/12/07 03:46:37;;;;;;;6.25;4.92;;;;;;;2.06;81.76;96575.36;1529820;92;26565;-72
2022/12/07 03:49:26;;;;;;;8.28;5.10;;;;;;;2.05;81.78;96572.91;1529754;92;25861;-75
2022/12/07 03:52:24;;;;;;;5.17;4.67;;;;;;;2.05;81.77;96567.58;1469346;96;25930;-72
2022/12/07 03:55:22;;;;;;;5.85;5.20;;;;;;;2.04;81.82;96575.23;1469860;96;27515;-72
2022/12/07 03:57:53;;;;;;;6.30;4.70;;;;;;;2.05;81.89;96566.25;1469205;96;25937;-72
2022/12/07 04:00:20;;;;;;;6.90;5.20;;;;;;;2.06;81.82;96570.03;1469429;96;25968;-72
2022/12/07 04:02:47;;;;;;;8.43;5.75;;;;;;;2.08;81.83;96567.20;1469222;96;25813;-74
2022/12/07 04:05:14;;;;;;;7.42;5.90;;;;;;;2.08;81.86;96567.20;1469097;96;26045;-72
2022/12/07 04:07:41;;;;;;;7.78;5.62;;;;;;;2.09;81.88;96564.86;1484578;96;27481;-72
2022/12/07 04:10:09;;;;;;;6.55;5.67;;;;;;;2.10;81.95;96567.85;1480307;95;25825;-72
2022/12/07 04:12:36;;;;;;;7.15;6.20;;;;;;;2.11;82.00;96567.67;1501733;94;27051;-74
2022/12/07 04:15:05;;;;;;;8.28;6.90;;;;;;;2.11;82.01;96561.52;1542562;92;25818;-73
2022/12/07 04:17:32;;;;;;;8.90;6.30;;;;;;;2.13;82.03;96560.34;1549836;91;25868;-72
2022/12/07 04:19:58;;;;;;;11.25;7.03;;;;;;;2.13;82.02;96557.69;1564548;90;27391;-72
2022/12/07 04:22:25;;;;;;;9.30;7.35;;;;;;;2.12;82.02;96557.86;1564519;91;25812;-74
2022/12/07 04:24:52;;;;;;;9.15;6.55;;;;;;;2.09;82.06;96548.89;1564624;91;26432;-74
2022/12/07 04:27:18;;;;;;;8.88;6.92;;;;;;;2.10;82.11;96550.55;1595125;89;26538;-71
2022/12/07 04:29:45;;;;;;;12.70;7.03;;;;;;;2.11;82.11;96550.88;1658058;85;25827;-72
2022/12/07 04:32:12;;;;;;;9.60;7.12;;;;;;;2.11;82.12;96551.70;1680994;84;27434;-71
2022/12/07 04:34:38;;;;;;;9.30;6.47;;;;;;;2.11;82.12;96545.55;1758488;79;25965;-72
2022/12/07 04:37:05;;;;;;;8.83;6.25;;;;;;;2.12;82.22;96549.37;1775897;78;25806;-73
2022/12/07 04:39:33;;;;;;;6.90;5.42;;;;;;;2.14;82.20;96554.52;1787281;79;25808;-74
2022/12/07 04:42:01;;;;;;;8.75;5.95;;;;;;;2.12;82.17;96549.88;1770689;79;26002;-72
2022/12/07 04:44:29;;;;;;;8.53;6.53;;;;;;;2.11;82.24;96554.36;1770792;79;27379;-72
2022/12/07 04:46:56;;;;;;;12.18;8.78;;;;;;;2.11;82.24;96555.70;1792925;78;25712;-72
2022/12/07 04:49:24;;;;;;;9.73;8.08;;;;;;;2.12;82.24;96548.54;1770480;79;25782;-70
2022/12/07 04:51:52;;;;;;;11.45;8.50;;;;;;;2.15;82.27;96548.19;1791545;78;26469;-72
2022/12/07 04:54:19;;;;;;;11.45;7.67;;;;;;;2.15;82.30;96548.19;1794256;78;25713;-71
2022/12/07 04:56:45;;;;;;;12.15;8.05;;;;;;;2.12;82.28;96545.38;1770853;79;27389;-71
2022/12/07 04:59:14;;;;;;;11.57;7.72;;;;;;;2.12;82.24;96536.56;1770860;79;25405;-71
2022/12/07 05:01:41;;;;;;;17.00;10.65;;;;;;;2.13;82.27;96536.88;1786731;78;25805;-71
2022/12/07 05:04:09;;;;;;;19.42;11.73;;;;;;;2.14;82.31;96530.55;1776773;78;25715;-72
2022/12/07 05:06:36;;;;;;;14.55;9.13;;;;;;;2.15;82.33;96534.88;1777181;78;25929;-72
2022/12/07 05:09:04;;;;;;;18.55;9.78;;;;;;;2.14;82.38;96531.89;1771036;78;27384;-73
2022/12/07 05:11:39;;;;;;;14.60;8.83;;;;;;;2.15;82.37;96533.55;1770411;79;25712;-71
2022/12/07 05:14:13;;;;;;;11.63;7.55;;;;;;;2.15;82.39;96533.55;1770940;79;25761;-72
2022/12/07 05:16:42;;;;;;;11.85;7.55;;;;;;;2.15;82.33;96534.88;1770821;79;25722;-72
2022/12/07 05:19:09;;;;;;;13.72;7.58;;;;;;;2.15;82.42;96530.88;1770818;79;25689;-72
2022/12/07 05:21:37;;;;;;;16.67;9.75;;;;;;;2.16;82.44;96532.54;1740660;78;27368;-72
2022/12/07 05:24:06;;;;;;;17.80;10.25;;;;;;;2.18;82.49;96537.16;1783955;78;25742;-72
2022/12/07 05:26:32;;;;;;;14.33;9.60;;;;;;;2.14;82.41;96534.55;1779353;79;25817;-72
2022/12/07 05:28:59;;;;;;;12.73;7.85;;;;;;;2.10;82.45;96534.58;1781642;78;25712;-74
2022/12/07 05:31:27;;;;;;;12.03;7.92;;;;;;;2.10;82.59;96542.06;1782014;78;25666;-72
2022/12/07 05:33:54;;;;;;;15.58;9.88;;;;;;;2.11;82.68;96537.06;1801526;78;27371;-72
2022/12/07 05:36:21;;;;;;;17.92;10.53;;;;;;;2.11;82.68;96534.40;1784063;78;25790;-72
2022/12/07 05:38:48;;;;;;;30.75;15.43;;;;;;;2.12;82.69;96543.22;1770853;79;26455;-74
2022/12/07 05:44:03;;;;;;;25.82;13.30;;;;;;;2.11;82.76;96541.55;1777193;80;26104;-72
2022/12/07 05:46:30;;;;;;;23.05;13.68;;;;;;;2.11;82.75;96536.23;1780244;80;28062;-71
2022/12/07 05:48:56;;;;;;;25.88;12.53;;;;;;;2.11;82.79;96538.89;1780041;79;25703;-72
2022/12/07 05:51:23;;;;;;;23.18;12.65;;;;;;;2.13;82.83;96544.38;1780184;80;25819;-72
2022/12/07 05:53:50;;;;;;;21.23;10.78;;;;;;;2.17;82.82;96542.19;1780176;80;25695;-73
2022/12/07 05:56:16;;;;;;;23.62;10.95;;;;;;;2.18;82.81;96549.97;1780263;80;25761;-72
2022/12/07 06:01:28;;;;;;;17.23;10.00;;;;;;;2.15;82.87;96547.69;1756163;79;25752;-72
2022/12/07 06:03:55;;;;;;;17.25;10.45;;;;;;;2.16;82.92;96553.84;1747092;81;25785;-72
2022/12/07 06:06:21;;;;;;;18.30;11.83;;;;;;;2.14;82.93;96547.36;1770646;79;26311;-73
2022/12/07 06:08:48;;;;;;;20.43;11.97;;;;;;;2.12;82.96;96547.20;1756931;80;25297;-72
2022/12/07 06:13:59;;;;;;;20.35;12.80;;;;;;;2.11;83.00;96550.88;1774003;79;26073;-72
2022/12/07 06:16:26;;;;;;;18.30;12.55;;;;;;;2.10;83.02;96556.70;1774345;79;25792;-72
2022/12/07 06:18:52;;;;;;;20.80;13.80;;;;;;;2.09;83.07;96550.22;1774278;79;25830;-73
2022/12/07 06:21:19;;;;;;;24.30;14.93;;;;;;;2.10;83.08;96557.20;1774490;80;25703;-73
2022/12/07 06:23:47;;;;;;;23.15;13.62;;;;;;;2.08;83.07;96556.05;1774268;79;27218;-74
2022/12/07 06:26:14;;;;;;;20.85;13.75;;;;;;;2.08;83.08;96556.55;1774224;79;25701;-72
2022/12/07 06:28:41;;;;;;;19.42;13.43;;;;;;;2.10;83.18;96561.20;1774378;79;25774;-72
2022/12/07 06:31:08;;;;;;;22.22;13.93;;;;;;;2.08;83.18;96562.70;1774437;79;26676;-72
2022/12/07 06:33:34;;;;;;;23.32;14.93;;;;;;;2.10;83.18;96562.53;1774235;80;25733;-74
2022/12/07 06:36:01;;;;;;;23.42;14.45;;;;;;;2.10;83.19;96559.86;1774046;80;28279;-72
2022/12/07 06:38:28;;;;;;;21.57;13.80;;;;;;;2.09;83.21;96561.70;1774428;79;25850;-71
2022/12/07 06:40:54;;;;;;;21.65;15.45;;;;;;;2.11;83.28;96560.19;1785219;79;25678;-72
2022/12/07 06:43:21;;;;;;;22.87;15.68;;;;;;;2.12;83.30;96563.19;1802012;79;26541;-73
2022/12/07 06:45:48;;;;;;;24.57;16.15;;;;;;;2.11;83.32;96568.18;1801866;78;25798;-73
2022/12/07 06:48:14;;;;;;;23.70;15.55;;;;;;;2.12;83.32;96563.19;1780691;79;27363;-72
2022/12/07 06:50:41;;;;;;;27.75;16.82;;;;;;;2.10;83.34;96564.69;1782481;79;26403;-72
2022/12/07 06:53:09;;;;;;;25.02;17.20;;;;;;;2.10;83.37;96570.02;1800004;79;25783;-72
2022/12/07 06:55:36;;;;;;;25.08;17.02;;;;;;;2.11;83.44;96569.01;1784882;79;25740;-72
2022/12/07 06:58:03;;;;;;;22.75;16.60;;;;;;;2.15;83.46;96569.48;1792787;79;25657;-74
2022/12/07 07:00:30;;;;;;;22.62;16.10;;;;;;;2.17;83.50;96574.14;1770256;79;28245;-71
2022/12/07 07:02:56;;;;;;;25.75;17.02;;;;;;;2.18;83.50;96571.27;1770405;79;25468;-72
2022/12/07 07:05:23;;;;;;;24.90;17.70;;;;;;;2.18;83.49;96569.11;1782502;79;25777;-73
2022/12/07 07:07:51;;;;;;;26.90;17.80;;;;;;;2.19;83.49;96568.10;1779896;79;25758;-73
2022/12/07 07:10:18;;;;;;;31.15;18.98;;;;;;;2.17;83.47;96571.47;1785636;78;25819;-74
2022/12/07 07:12:44;;;;;;;29.60;19.85;;;;;;;2.18;83.49;96573.10;1831405;76;28012;-73
2022/12/07 07:15:11;;;;;;;29.92;20.72;;;;;;;2.18;83.50;96573.10;1802119;77;25664;-73
2022/12/07 07:17:38;;;;;;;31.20;19.80;;;;;;;2.18;83.57;96576.59;1800509;77;26698;-72
2022/12/07 07:20:06;;;;;;;34.75;20.02;;;;;;;2.21;83.58;96578.08;1822342;77;25722;-72
2022/12/07 07:22:33;;;;;;;31.68;19.65;;;;;;;2.22;83.64;96579.73;1847785;77;25803;-74
2022/12/07 07:25:00;;;;;;;30.95;19.62;;;;;;;2.22;83.62;96582.39;1829771;77;28106;-73
2022/12/07 07:27:26;;;;;;;31.20;18.70;;;;;;;2.22;83.66;96585.06;1832887;77;25575;-72
2022/12/07 07:29:53;;;;;;;29.80;19.40;;;;;;;2.23;83.67;96580.56;1800592;77;25741;-72
2022/12/07 07:32:21;;;;;;;44.03;25.00;;;;;;;2.24;83.70;96585.71;1800578;77;25706;-73
2022/12/07 07:34:48;;;;;;;43.70;27.22;;;;;;;2.22;83.67;96582.39;1833971;77;25695;-72
2022/12/07 07:37:15;;;;;;;42.13;25.50;;;;;;;2.20;83.70;96585.73;1798493;78;27383;-74
2022/12/07 07:39:41;;;;;;;38.85;24.92;;;;;;;2.20;83.76;96581.73;1821612;77;25716;-73
2022/12/07 07:42:08;;;;;;;36.95;23.52;;;;;;;2.25;83.86;96582.05;1798869;77;25665;-75
2022/12/07 07:44:35;;;;;;;32.50;21.60;;;;;;;2.26;83.81;96581.04;1820790;77;26389;-74
2022/12/07 07:47:02;;;;;;;33.48;21.12;;;;;;;2.28;83.84;96584.36;1799972;77;25640;-72
2022/12/07 07:49:28;;;;;;;31.33;21.45;;;;;;;2.30;83.84;96583.65;1798784;77;27365;-74
2022/12/07 07:51:55;;;;;;;34.03;21.25;;;;;;;2.32;83.87;96588.30;1821802;77;25723;-72
2022/12/07 07:54:22;;;;;;;30.50;21.05;;;;;;;2.33;83.87;96581.96;1798634;77;25728;-73
2022/12/07 07:56:48;;;;;;;32.33;22.17;;;;;;;2.33;83.87;96585.13;1798575;77;25790;-73
2022/12/07 07:59:16;;;;;;;31.20;21.33;;;;;;;2.35;83.96;96586.61;1798463;77;25695;-72
2022/12/07 08:01:42;;;;;;;40.12;24.80;;;;;;;2.35;83.97;96583.95;1821430;77;27637;-73
2022/12/07 08:04:09;;;;;;;40.43;23.92;;;;;;;2.36;83.99;96592.77;1798632;77;26312;-73
2022/12/07 08:06:37;;;;;;;42.45;26.15;;;;;;;2.40;84.04;96599.41;1806048;77;25680;-73
2022/12/07 08:09:05;;;;;;;47.88;26.82;;;;;;;2.40;84.00;96601.56;1813842;78;25841;-72
2022/12/07 08:11:32;;;;;;;46.90;26.68;;;;;;;2.39;84.02;96598.58;1821796;76;25229;-73
2022/12/07 08:13:58;;;;;;;54.27;29.25;;;;;;;2.46;84.06;96603.99;1813829;78;28153;-73
2022/12/07 08:16:25;;;;;;;47.78;26.93;;;;;;;2.52;84.08;96605.95;1811839;78;25703;-72
2022/12/07 08:18:52;;;;;;;36.45;21.40;;;;;;;2.58;84.06;96601.72;1831451;78;25673;-72
2022/12/07 08:21:18;;;;;;;14.90;7.90;;;;;;;2.60;83.96;96614.36;1805403;77;26465;-72
2022/12/07 08:23:45;;;;;;;9.00;6.97;;;;;;;2.57;83.67;96613.38;1798760;77;25403;-72
2022/12/07 08:26:15;;;;;;;15.35;8.95;;;;;;;2.58;83.46;96605.72;1798543;77;27404;-74
2022/12/07 08:28:44;;;;;;;12.00;7.33;;;;;;;2.61;83.47;96604.03;1807901;77;25708;-73
2022/12/07 08:31:16;;;;;;;15.70;9.43;;;;;;;2.64;83.40;96611.67;1798797;77;25788;-74
2022/12/07 08:33:45;;;;;;;11.22;8.30;;;;;;;2.66;83.22;96605.62;1808264;77;25644;-72
2022/12/07 08:36:13;;;;;;;12.98;8.85;;;;;;;2.70;83.17;96612.27;1828939;78;25640;-74
2022/12/07 08:38:41;;;;;;;9.83;6.60;;;;;;;2.70;83.08;96614.92;1812747;77;27452;-71
2022/12/07 08:41:08;;;;;;;9.95;6.53;;;;;;;2.70;82.98;96624.25;1847645;77;25637;-74
2022/12/07 08:43:36;;;;;;;11.28;7.65;;;;;;;2.72;82.87;96622.23;1847506;77;25716;-73
2022/12/07 08:46:18;;;;;;;14.13;9.55;;;;;;;2.75;82.83;96622.72;1847404;77;25783;-72
2022/12/07 08:48:53;;;;;;;8.45;6.12;;;;;;;2.79;82.81;96625.82;1805776;77;25622;-73
2022/12/07 08:51:21;;;;;;;12.90;7.70;;;;;;;2.77;82.56;96623.87;1800272;77;28486;-72
2022/12/07 08:53:50;;;;;;;15.63;8.80;;;;;;;2.75;82.41;96620.55;1807781;77;25677;-72
2022/12/07 08:56:17;;;;;;;13.38;9.13;;;;;;;2.76;82.45;96624.87;1825103;77;25708;-73
2022/12/07 08:58:45;;;;;;;16.15;10.55;;;;;;;2.78;82.48;96622.83;1800329;77;26493;-72
2022/12/07 09:01:11;;;;;;;17.82;11.68;;;;;;;2.79;82.44;96629.31;1819567;77;25713;-71
2022/12/07 09:03:38;;;;;;;15.38;9.85;;;;;;;2.81;82.47;96622.48;1814012;77;27188;-72
2022/12/07 09:06:05;;;;;;;21.10;11.48;;;;;;;2.84;82.47;96634.11;1800438;77;25619;-72
2022/12/07 09:08:37;;;;;;;25.20;13.78;;;;;;;2.83;82.30;96617.80;1815675;77;25723;-75
2022/12/07 09:11:04;;;;;;;20.00;11.35;;;;;;;2.82;82.27;96626.80;1742565;80;25804;-72
2022/12/07 09:13:31;;;;;;;24.37;12.20;;;;;;;2.83;82.20;96628.45;1744991;80;25708;-73
2022/12/07 09:15:57;;;;;;;17.02;8.85;;;;;;;2.83;82.21;96628.45;1745503;80;27538;-72
2022/12/07 09:18:24;;;;;;;13.80;6.03;;;;;;;2.81;82.07;96621.14;1738158;82;25777;-74
2022/12/07 09:20:51;;;;;;;33.33;16.12;;;;;;;2.80;81.92;96620.81;1741083;80;25775;-72
2022/12/07 09:23:18;;;;;;;25.05;12.53;;;;;;;2.83;82.09;96623.95;1737233;82;25795;-73
2022/12/07 09:25:45;;;;;;;61.48;26.00;;;;;;;2.88;82.07;96618.09;1737399;82;25355;-73
2022/12/07 09:28:11;;;;;;;30.75;14.87;;;;;;;2.93;82.16;96627.68;1737380;82;27344;-72
2022/12/07 09:30:38;;;;;;;39.85;15.68;;;;;;;2.96;82.13;96621.99;1737199;82;26522;-72
2022/12/07 09:33:05;;;;;;;12.65;7.90;;;;;;;2.99;82.05;96612.81;1737386;82;25685;-74
2022/12/07 09:35:31;;;;;;;16.02;8.13;;;;;;;2.99;81.88;96618.14;1737409;82;26346;-72
2022/12/07 09:37:58;;;;;;;12.18;7.35;;;;;;;2.99;81.74;96622.97;1735242;81;25818;-72
2022/12/07 09:40:25;;;;;;;13.13;7.58;;;;;;;3.02;81.74;96623.11;1722649;82;27410;-74
2022/12/07 09:42:55;;;;;;;12.60;7.30;;;;;;;3.05;81.72;96620.89;1711765;82;25904;-71
2022/12/07 09:45:32;;;;;;;8.33;5.70;;;;;;;3.07;81.53;96615.38;1737261;82;25758;-74
2022/12/07 09:47:59;;;;;;;7.25;5.08;;;;;;;3.07;81.40;96620.20;1737498;82;25918;-72
2022/12/07 09:50:28;;;;;;;6.60;4.75;;;;;;;3.07;81.40;96620.20;1737355;82;25786;-73
2022/12/07 09:53:15;;;;;;;9.23;6.28;;;;;;;3.08;81.36;96615.20;1737083;82;27432;-73
2022/12/07 09:55:44;;;;;;;13.45;6.15;;;;;;;3.08;81.19;96616.53;1734449;82;25824;-72
2022/12/07 09:58:19;;;;;;;12.55;6.62;;;;;;;3.09;81.00;96619.52;1737361;82;25809;-73
2022/12/07 10:00:46;;;;;;;14.80;8.58;;;;;;;3.11;80.93;96614.83;1732717;82;25906;-71
2022/12/07 10:03:13;;;;;;;8.18;5.30;;;;;;;3.15;80.98;96613.94;1737324;82;25855;-72
2022/12/07 10:05:45;;;;;;;9.53;6.00;;;;;;;3.15;80.78;96617.44;1737325;82;28115;-72
2022/12/07 10:08:13;;;;;;;6.05;4.20;;;;;;;3.14;80.64;96618.98;1764304;78;25285;-72
2022/12/07 10:10:41;;;;;;;5.22;3.83;;;;;;;3.09;80.39;96616.02;1803563;78;25753;-73
2022/12/07 10:13:11;;;;;;;6.45;4.00;;;;;;;3.07;80.26;96614.05;1803359;78;25733;-73
2022/12/07 10:15:46;;;;;;;10.13;6.05;;;;;;;3.07;80.25;96605.53;1761639;80;25794;-73
2022/12/07 10:18:38;;;;;;;9.45;5.03;;;;;;;3.11;80.28;96607.34;1729937;81;28192;-72
2022/12/07 10:21:26;;;;;;;5.83;4.30;;;;;;;3.10;80.09;96603.02;1730204;82;25306;-72
2022/12/07 10:24:07;;;;;;;4.20;3.17;;;;;;;3.07;80.11;96601.53;1730039;81;25743;-72
2022/12/07 10:26:38;;;;;;;19.07;8.93;;;;;;;3.10;79.91;96597.17;1729839;82;25678;-72
2022/12/07 10:29:24;;;;;;;11.15;5.70;;;;;;;3.11;79.76;96586.00;1683584;85;25300;-72
2022/12/07 10:31:59;;;;;;;5.22;3.77;;;;;;;3.14;79.77;96586.44;1683477;83;27383;-72
2022/12/07 10:34:30;;;;;;;6.97;4.60;;;;;;;3.16;79.65;96588.42;1683427;83;25723;-72
2022/12/07 10:37:11;;;;;;;10.50;5.87;;;;;;;3.16;79.46;96585.75;1680238;84;25875;-71
2022/12/07 10:39:51;;;;;;;4.97;3.40;;;;;;;3.21;79.53;96595.38;1646337;86;26517;-72
2022/12/07 10:42:27;;;;;;;8.28;5.35;;;;;;;3.23;79.38;96589.36;1579819;90;25408;-73
2022/12/07 10:45:15;;;;;;;6.03;3.80;;;;;;;3.23;79.09;96593.36;1579812;90;27489;-73
2022/12/07 10:48:16;;;;;;;4.72;2.92;;;;;;;3.24;78.97;96591.02;1579838;90;25806;-72
2022/12/07 10:51:05;;;;;;;7.05;4.65;;;;;;;3.23;78.78;96594.69;1560518;91;25738;-72
2022/12/07 10:53:49;;;;;;;3.33;2.45;;;;;;;3.18;78.74;96586.41;1587639;89;25812;-73
2022/12/07 10:56:26;;;;;;;3.95;2.70;;;;;;;3.12;78.63;96577.00;1587295;89;25797;-72
2022/12/07 10:59:18;;;;;;;4.05;2.60;;;;;;;3.13;78.48;96579.48;1588209;89;28290;-72
2022/12/07 11:02:25;;;;;;;5.17;3.07;;;;;;;3.16;78.53;96567.09;1588248;89;25795;-72
2022/12/07 11:05:32;;;;;;;5.90;4.03;;;;;;;3.20;78.43;96566.22;1588143;89;25807;-72
2022/12/07 11:08:20;;;;;;;5.40;4.12;;;;;;;3.21;78.41;96561.21;1584601;89;25832;-72
2022/12/07 11:11:00;;;;;;;15.70;8.23;;;;;;;3.26;78.40;96560.95;1587950;89;25876;-72
2022/12/07 11:13:41;;;;;;;23.77;10.85;;;;;;;3.30;78.34;96562.75;1569282;91;27443;-71
2022/12/07 11:16:36;;;;;;;31.50;14.55;;;;;;;3.34;78.24;96564.55;1579141;89;25910;-72
2022/12/07 11:19:31;;;;;;;15.72;8.90;;;;;;;3.35;78.25;96563.54;1579816;89;25797;-72
2022/12/07 11:22:42;;;;;;;19.87;11.38;;;;;;;3.38;78.27;96559.97;1583074;89;25795;-73
2022/12/07 11:25:34;;;;;;;22.70;11.75;;;;;;;3.42;78.30;96557.77;1582519;89;25870;-72
2022/12/07 11:28:35;;;;;;;15.32;8.73;;;;;;;3.45;78.36;96552.06;1593427;89;27437;-73
2022/12/07 11:31:25;;;;;;;19.35;11.00;;;;;;;3.48;78.42;96550.36;1589016;89;25881;-72
2022/12/07 11:34:06;;;;;;;32.48;19.10;;;;;;;3.53;78.34;96547.94;1598776;88;25780;-74
2022/12/07 11:36:45;;;;;;;42.58;24.00;;;;;;;3.57;78.39;96542.05;1606670;88;25779;-74
2022/12/07 11:39:27;;;;;;;32.08;20.88;;;;;;;3.62;78.39;96552.17;1576541;89;25813;-72
2022/12/07 11:41:59;;;;;;;27.67;18.40;;;;;;;3.65;78.41;96550.94;1607488;89;27468;-72
2022/12/07 11:44:52;;;;;;;26.05;17.23;;;;;;;3.64;78.35;96552.78;1604382;88;32598;-72
2022/12/07 11:47:51;;;;;;;26.27;17.50;;;;;;;3.64;78.41;96547.44;1558142;91;26407;-72
2022/12/07 11:50:37;;;;;;;24.50;15.55;;;;;;;3.62;78.46;96545.50;1567034;89;25917;-72
2022/12/07 11:53:09;;;;;;;23.18;14.33;;;;;;;3.57;78.31;96549.23;1584461;89;25909;-72
2022/12/07 11:55:57;;;;;;;22.60;15.58;;;;;;;3.55;78.32;96551.25;1555619;91;27418;-72
2022/12/07 11:58:49;;;;;;;22.17;14.30;;;;;;;3.54;78.39;96546.92;1560134;91;25821;-71
2022/12/07 12:01:33;;;;;;;17.15;11.55;;;;;;;3.55;78.40;96548.58;1554907;91;26971;-72
2022/12/07 12:04:11;;;;;;;17.50;11.25;;;;;;;3.53;78.18;96545.27;1566849;91;26577;-71
2022/12/07 12:06:43;;;;;;;14.58;9.03;;;;;;;3.51;78.12;96545.96;1560822;91;25946;-73
2022/12/07 12:09:31;;;;;;;15.58;9.80;;;;;;;3.48;78.02;96538.35;1557750;89;28221;-73